Time;durP1;ratioP1;P1;durP2;ratioP2;P2;SDS_P1;SDS_P2;PMS_P1;PMS_P2;Temp;Humidity;BMP_temperature;BMP_pressure;BME280_temperature;BME280_humidity;BME280_pressure;Samples;Min_cycle;Max_cycle;Signal;HPM_P1;HPM_P2
2022/11/28 00:01:30;;;;;;;8.93;4.40;;;;;;;11.01;87.18;100624.78;5035046;28;20049;-62
2022/11/28 00:03:58;;;;;;;9.95;5.13;;;;;;;10.82;87.37;100608.50;5032965;28;20073;-61
2022/11/28 00:06:26;;;;;;;9.05;4.38;;;;;;;10.90;87.58;100604.13;5045873;28;20049;-62
2022/11/28 00:08:56;;;;;;;11.00;4.88;;;;;;;11.01;87.49;100602.72;5036658;28;20061;-62
2022/11/28 00:11:24;;;;;;;9.65;4.30;;;;;;;11.12;86.47;100596.59;5035198;28;20057;-62
2022/11/28 00:13:51;;;;;;;8.88;4.65;;;;;;;11.12;86.83;100587.53;5026105;28;20030;-61
2022/11/28 00:16:20;;;;;;;11.52;4.50;;;;;;;11.07;87.10;100590.44;5035545;28;20053;-62
2022/11/28 00:18:49;;;;;;;8.88;4.93;;;;;;;10.97;87.40;100585.19;5019532;28;20060;-61
2022/11/28 00:21:17;;;;;;;8.90;4.88;;;;;;;11.09;87.12;100588.16;5033940;28;20041;-62
2022/11/28 00:23:45;;;;;;;10.45;5.05;;;;;;;11.18;86.40;100589.81;5018839;28;20046;-61
2022/11/28 00:26:19;;;;;;;9.73;4.88;;;;;;;11.11;86.74;100589.47;5024228;28;20050;-61
2022/11/28 00:28:47;;;;;;;7.32;4.32;;;;;;;10.99;87.22;100583.75;5025251;28;20068;-61
2022/11/28 00:31:17;;;;;;;12.23;4.68;;;;;;;10.82;88.15;100578.19;5024855;28;20057;-63
2022/11/28 00:33:45;;;;;;;10.77;4.68;;;;;;;10.79;88.58;100581.56;5035613;28;20512;-62
2022/11/28 00:36:12;;;;;;;9.85;4.78;;;;;;;10.73;89.11;100571.00;5035604;28;20049;-62
2022/11/28 00:38:40;;;;;;;9.00;5.15;;;;;;;11.00;88.64;100577.09;5030164;28;20049;-61
2022/11/28 00:41:19;;;;;;;8.77;4.53;;;;;;;10.76;88.50;100581.38;5035948;28;20491;-62
2022/11/28 00:43:47;;;;;;;10.25;4.43;;;;;;;10.60;89.66;100578.22;5036081;28;20057;-61
2022/11/28 00:46:20;;;;;;;10.00;4.60;;;;;;;10.89;89.58;100572.22;5018081;28;20117;-62
2022/11/28 00:48:48;;;;;;;8.88;4.47;;;;;;;10.90;88.79;100569.13;5019302;28;20045;-62
2022/11/28 00:51:17;;;;;;;9.73;4.80;;;;;;;10.97;88.63;100571.41;5027134;28;20057;-61
2022/11/28 00:53:46;;;;;;;11.27;4.53;;;;;;;10.86;88.51;100567.34;5028476;28;20050;-61
2022/11/28 00:56:16;;;;;;;11.20;4.65;;;;;;;10.67;89.40;100564.81;5030522;28;20049;-62
2022/11/28 00:58:44;;;;;;;;;;;;;;;10.75;89.76;100566.81;5019885;28;20053;-62
2022/11/28 01:01:15;;;;;;;7.35;4.38;;;;;;;10.98;88.49;100575.81;5007760;28;20521;-62
2022/11/28 01:03:43;;;;;;;8.15;4.75;;;;;;;10.83;88.41;100574.28;5035958;28;20050;-61
2022/11/28 01:06:18;;;;;;;11.82;4.32;;;;;;;11.01;88.89;100567.72;5032696;28;20045;-61
2022/11/28 01:08:46;;;;;;;9.95;4.40;;;;;;;11.07;88.40;100551.84;5023084;28;20076;-62
2022/11/28 01:11:13;;;;;;;7.50;4.20;;;;;;;11.04;87.89;100555.22;5007236;28;20053;-61
2022/11/28 01:13:40;;;;;;;8.20;4.55;;;;;;;10.91;88.35;100556.97;5025548;28;20468;-62
2022/11/28 01:16:08;;;;;;;10.60;4.63;;;;;;;10.99;88.58;100560.88;4993551;28;20049;-62
2022/11/28 01:18:36;;;;;;;7.32;4.15;;;;;;;10.94;89.12;100567.38;5008968;28;20527;-61
2022/11/28 01:21:05;;;;;;;8.55;4.38;;;;;;;11.04;88.57;100569.81;5028277;28;20046;-62
2022/11/28 01:23:32;;;;;;;8.27;4.78;;;;;;;11.04;88.71;100564.31;5022970;28;20366;-63
2022/11/28 01:26:01;;;;;;;7.57;4.28;;;;;;;11.01;89.04;100566.91;5033988;28;20046;-61
2022/11/28 01:28:28;;;;;;;7.40;4.15;;;;;;;11.03;88.60;100570.97;5034331;28;20056;-62
2022/11/28 01:30:55;;;;;;;6.88;3.80;;;;;;;11.07;88.67;100573.91;5040090;28;20056;-61
2022/11/28 01:33:22;;;;;;;9.98;5.03;;;;;;;10.97;88.97;100572.25;5039625;28;20049;-62
2022/11/28 01:35:54;;;;;;;7.60;4.65;;;;;;;11.15;88.91;100578.63;5013505;28;20049;-61
2022/11/28 01:38:22;;;;;;;8.27;4.97;;;;;;;11.11;88.80;100583.94;5035035;28;20049;-62
2022/11/28 01:40:50;;;;;;;8.68;4.90;;;;;;;11.11;88.89;100592.22;5001996;28;20049;-63
2022/11/28 01:43:17;;;;;;;8.38;5.15;;;;;;;11.17;88.78;100590.13;5017349;28;20057;-63
2022/11/28 01:45:45;;;;;;;8.02;4.80;;;;;;;11.15;88.57;100592.41;5025049;28;20053;-63
2022/11/28 01:48:21;;;;;;;8.50;4.53;;;;;;;11.23;88.51;100584.16;5020953;28;20523;-61
2022/11/28 01:50:51;;;;;;;8.88;4.28;;;;;;;11.21;88.73;100599.38;5024833;28;20049;-63
2022/11/28 01:53:18;;;;;;;;;;;;;;;11.24;88.93;100605.06;5014560;28;20042;-63
2022/11/28 01:55:51;;;;;;;9.80;4.78;;;;;;;11.24;89.00;100602.28;5013818;28;19928;-64
2022/11/28 01:58:18;;;;;;;9.80;5.05;;;;;;;11.25;88.72;100601.19;5024062;28;20058;-62
2022/11/28 02:00:46;;;;;;;8.38;4.50;;;;;;;11.35;88.16;100611.91;5004176;28;20061;-62
2022/11/28 02:03:18;;;;;;;9.20;4.80;;;;;;;11.29;88.55;100610.44;5013020;28;20165;-62
2022/11/28 02:05:46;;;;;;;9.30;5.20;;;;;;;11.17;89.18;100601.97;5030814;28;20045;-63
2022/11/28 02:08:13;;;;;;;8.55;4.80;;;;;;;11.24;88.94;100607.81;5034734;28;20056;-62
2022/11/28 02:11:07;;;;;;;7.97;4.80;;;;;;;11.32;88.81;100601.53;5034465;28;20046;-64
2022/11/28 02:13:46;;;;;;;8.20;4.85;;;;;;;11.31;88.54;100605.41;5021634;28;20519;-65
2022/11/28 02:16:41;;;;;;;9.90;5.15;;;;;;;11.30;88.60;100605.72;5020051;28;20056;-64
2022/11/28 02:19:17;;;;;;;8.73;5.45;;;;;;;11.24;88.81;100605.06;5022984;28;20497;-61
2022/11/28 02:22:02;;;;;;;9.18;5.43;;;;;;;11.38;88.37;100601.38;5018004;28;20531;-64
2022/11/28 02:24:53;;;;;;;8.30;4.90;;;;;;;11.29;88.90;100591.16;5015871;28;20357;-62
2022/11/28 02:27:30;;;;;;;9.55;5.65;;;;;;;11.42;88.40;100583.06;5031142;28;20049;-61
2022/11/28 02:30:16;;;;;;;10.40;5.55;;;;;;;11.41;88.57;100576.72;5032837;28;20499;-61
2022/11/28 02:33:10;;;;;;;10.57;5.45;;;;;;;11.38;89.05;100574.63;5032336;28;20463;-61
2022/11/28 02:35:44;;;;;;;8.88;5.55;;;;;;;11.33;89.24;100580.28;5020097;28;20057;-61
2022/11/28 02:38:22;;;;;;;7.18;4.75;;;;;;;11.20;89.42;100587.56;5032189;28;20057;-62
2022/11/28 02:41:05;;;;;;;10.15;5.32;;;;;;;11.29;90.13;100582.06;5018591;28;20061;-62
2022/11/28 02:43:56;;;;;;;10.73;5.10;;;;;;;11.19;90.19;100585.13;5005383;28;20056;-62
2022/11/28 02:46:37;;;;;;;9.00;5.30;;;;;;;11.21;90.59;100575.38;5027415;28;20060;-62
2022/11/28 02:49:06;;;;;;;9.75;6.18;;;;;;;11.30;90.00;100573.47;5034495;28;20056;-62
2022/11/28 02:51:42;;;;;;;10.98;6.18;;;;;;;11.36;89.85;100565.84;5012096;28;20050;-64
2022/11/28 02:54:11;;;;;;;8.63;5.30;;;;;;;11.29;89.86;100558.06;5012043;28;20057;-62
2022/11/28 02:56:46;;;;;;;9.73;5.43;;;;;;;11.35;89.60;100555.94;5016068;28;20060;-62
2022/11/28 02:59:45;;;;;;;10.27;5.80;;;;;;;11.42;89.66;100547.19;5035656;28;20049;-61
2022/11/28 03:02:22;;;;;;;12.80;5.72;;;;;;;11.28;89.95;100550.91;5033670;28;20053;-61
2022/11/28 03:04:55;;;;;;;9.85;6.03;;;;;;;11.35;89.43;100544.91;5022218;28;20049;-61
2022/11/28 03:07:41;;;;;;;10.35;6.05;;;;;;;11.26;89.62;100544.09;5040770;28;20076;-62
2022/11/28 03:10:29;;;;;;;10.68;6.00;;;;;;;11.27;90.69;100537.44;5016584;28;20053;-62
2022/11/28 03:13:02;;;;;;;9.73;5.80;;;;;;;11.26;89.64;100542.13;5032608;28;20554;-64
2022/11/28 03:15:47;;;;;;;9.13;5.57;;;;;;;11.08;90.41;100550.69;5033509;28;20045;-62
2022/11/28 03:18:21;;;;;;;9.88;6.10;;;;;;;10.90;91.38;100552.59;4980821;28;20050;-62
2022/11/28 03:21:00;;;;;;;11.38;5.97;;;;;;;10.75;92.65;100555.78;5003010;28;20046;-62
2022/11/28 03:23:43;;;;;;;10.23;6.13;;;;;;;10.77;92.72;100553.53;5032812;28;20064;-63
2022/11/28 03:26:59;;;;;;;9.45;6.22;;;;;;;10.96;92.92;100547.75;4993964;28;20285;-63
2022/11/28 03:29:36;;;;;;;11.43;6.47;;;;;;;10.98;91.82;100553.75;4989445;28;20070;-61
2022/11/28 03:32:11;;;;;;;9.25;6.18;;;;;;;11.06;91.66;100561.22;5028182;28;20061;-62
2022/11/28 03:34:43;;;;;;;10.18;6.35;;;;;;;10.84;92.58;100564.91;5033910;28;20049;-61
2022/11/28 03:37:14;;;;;;;13.48;7.05;;;;;;;10.88;92.77;100568.63;5028784;28;20060;-61
2022/11/28 03:39:46;;;;;;;13.27;7.00;;;;;;;10.84;93.13;100572.34;5032586;28;20426;-61
2022/11/28 03:42:23;;;;;;;11.48;6.97;;;;;;;11.02;92.33;100568.50;5027796;28;20058;-62
2022/11/28 03:45:14;;;;;;;13.90;7.20;;;;;;;11.10;91.96;100568.56;5029300;28;20069;-61
2022/11/28 03:47:45;;;;;;;11.75;6.93;;;;;;;11.15;91.78;100559.31;5035620;28;20045;-61
2022/11/28 03:50:28;;;;;;;13.43;7.45;;;;;;;11.22;91.18;100548.63;5037017;28;20393;-61
2022/11/28 03:53:00;;;;;;;10.10;6.15;;;;;;;11.20;91.30;100556.41;5019717;28;20054;-62
2022/11/28 03:55:35;;;;;;;12.27;7.03;;;;;;;11.15;91.04;100543.59;5021264;28;20050;-62
2022/11/28 03:58:33;;;;;;;11.63;7.00;;;;;;;11.38;90.90;100544.28;5023298;28;20403;-62
2022/11/28 04:01:22;;;;;;;11.05;6.60;;;;;;;11.36;90.06;100538.28;5005651;28;20049;-63
2022/11/28 04:04:04;;;;;;;11.70;7.20;;;;;;;11.16;91.09;100541.63;5017324;28;20060;-61
2022/11/28 04:06:52;;;;;;;11.90;6.85;;;;;;;11.31;90.60;100541.97;5026399;28;20053;-62
2022/11/28 04:09:35;;;;;;;10.88;7.10;;;;;;;11.06;90.83;100550.22;5051682;28;20053;-63
2022/11/28 04:12:32;;;;;;;13.95;8.13;;;;;;;10.98;91.66;100557.31;5044064;28;20515;-63
2022/11/28 04:15:05;;;;;;;14.18;7.75;;;;;;;11.18;91.99;100559.50;5016290;28;20508;-61
2022/11/28 04:17:38;;;;;;;12.75;7.15;;;;;;;11.34;90.99;100554.31;5053650;28;20053;-63
2022/11/28 04:20:31;;;;;;;13.27;7.78;;;;;;;11.37;90.50;100547.38;5019851;28;20057;-63
2022/11/28 04:23:05;;;;;;;11.52;6.65;;;;;;;11.48;90.10;100551.41;5018955;28;20068;-63
2022/11/28 04:25:35;;;;;;;11.73;7.10;;;;;;;11.46;89.77;100548.97;5009998;28;20056;-63
2022/11/28 04:28:07;;;;;;;12.20;7.05;;;;;;;11.40;89.79;100553.03;5055351;28;20044;-62
2022/11/28 04:30:36;;;;;;;11.00;6.97;;;;;;;11.30;90.52;100547.81;5054796;28;20064;-61
2022/11/28 04:33:06;;;;;;;14.00;7.75;;;;;;;11.28;91.13;100553.66;5022277;28;20045;-61
2022/11/28 04:35:40;;;;;;;12.75;7.60;;;;;;;11.30;91.21;100556.91;5036735;28;20056;-66
2022/11/28 04:38:09;;;;;;;14.10;7.53;;;;;;;11.16;91.50;100556.22;5022130;28;20052;-61
2022/11/28 04:40:48;;;;;;;10.25;6.75;;;;;;;11.21;91.37;100549.75;5021629;28;20691;-62
2022/11/28 04:43:19;;;;;;;12.25;7.88;;;;;;;11.28;91.92;100550.91;5022907;28;20394;-62
2022/11/28 04:45:53;;;;;;;10.65;7.18;;;;;;;11.27;91.57;100557.56;5039410;28;20048;-62
2022/11/28 04:48:21;;;;;;;11.95;7.20;;;;;;;11.39;90.96;100565.19;5037816;28;20052;-63
2022/11/28 04:50:56;;;;;;;11.18;7.00;;;;;;;11.40;90.86;100574.28;5035439;28;20052;-64
2022/11/28 04:53:31;;;;;;;10.23;7.15;;;;;;;11.40;90.75;100580.63;5025279;28;20069;-63
2022/11/28 04:56:02;;;;;;;15.88;7.40;;;;;;;11.49;90.65;100573.16;5011401;28;20041;-63
2022/11/28 04:58:35;;;;;;;11.45;7.47;;;;;;;11.32;90.63;100551.88;5037722;28;20052;-62
2022/11/28 05:01:06;;;;;;;13.80;7.55;;;;;;;11.33;90.78;100536.16;5020813;28;20611;-62
2022/11/28 05:03:33;;;;;;;11.40;7.18;;;;;;;11.32;90.94;100529.84;5054607;28;20049;-64
2022/11/28 05:06:08;;;;;;;12.27;6.93;;;;;;;11.46;90.73;100534.38;5055277;28;20611;-61
2022/11/28 05:08:38;;;;;;;12.15;8.18;;;;;;;11.38;90.36;100545.06;5037984;28;20071;-63
2022/11/28 05:11:05;;;;;;;;;;;;;;;11.51;90.22;100550.75;5025590;28;20053;-61
2022/11/28 05:13:32;;;;;;;11.82;7.50;;;;;;;11.40;90.33;100549.47;5035846;28;19921;-62
2022/11/28 05:16:00;;;;;;;14.93;7.60;;;;;;;11.43;90.14;100548.81;5020943;28;20045;-63
2022/11/28 05:18:27;;;;;;;15.30;7.57;;;;;;;11.51;90.19;100559.84;5036054;28;20056;-62
2022/11/28 05:20:57;;;;;;;16.58;8.15;;;;;;;11.51;90.28;100557.09;5035147;28;20061;-63
2022/11/28 05:23:25;;;;;;;14.77;7.88;;;;;;;11.51;90.18;100546.06;5035459;28;20057;-62
2022/11/28 05:25:52;;;;;;;11.80;7.75;;;;;;;11.49;90.07;100553.06;5022849;28;20048;-62
2022/11/28 05:28:19;;;;;;;13.57;7.70;;;;;;;11.60;90.19;100540.53;5018728;28;20050;-61
2022/11/28 05:30:58;;;;;;;13.48;7.97;;;;;;;11.51;89.75;100529.50;5002622;28;20041;-61
2022/11/28 05:33:25;;;;;;;14.55;7.85;;;;;;;11.46;90.26;100537.13;5035407;28;20060;-62
2022/11/28 05:35:53;;;;;;;14.85;7.70;;;;;;;11.52;90.26;100541.38;5047713;28;20044;-62
2022/11/28 05:38:20;;;;;;;17.95;8.30;;;;;;;11.45;89.91;100549.31;5037555;28;20412;-62
2022/11/28 05:40:47;;;;;;;13.23;7.43;;;;;;;11.47;90.03;100544.28;5055039;28;20036;-63
2022/11/28 05:43:14;;;;;;;14.43;8.10;;;;;;;11.37;90.76;100545.41;5022087;28;20485;-64
2022/11/28 05:45:42;;;;;;;16.35;7.95;;;;;;;11.39;90.87;100545.88;5034379;28;20038;-64
2022/11/28 05:48:10;;;;;;;15.65;8.55;;;;;;;11.44;90.64;100544.94;5051016;28;20045;-64
2022/11/28 05:50:39;;;;;;;23.08;8.48;;;;;;;11.60;89.99;100549.63;5034726;28;20049;-63
2022/11/28 05:53:07;;;;;;;20.33;8.10;;;;;;;11.56;89.90;100539.59;5033675;28;20056;-62
2022/11/28 05:55:40;;;;;;;14.45;7.68;;;;;;;11.60;89.88;100546.06;5038513;28;20053;-61
2022/11/28 05:58:07;;;;;;;17.25;7.45;;;;;;;11.57;89.75;100550.28;5055502;28;20060;-64
2022/11/28 06:00:34;;;;;;;19.02;8.15;;;;;;;11.52;89.58;100546.88;5051552;28;20046;-65
2022/11/28 06:03:03;;;;;;;14.48;7.40;;;;;;;11.61;89.46;100551.25;5035419;28;20061;-64
2022/11/28 06:05:31;;;;;;;20.10;8.27;;;;;;;11.57;89.47;100555.00;5034533;28;20056;-64
2022/11/28 06:08:11;;;;;;;14.15;7.80;;;;;;;11.67;88.95;100555.53;5039870;28;20072;-64
2022/11/28 06:10:38;;;;;;;16.73;8.38;;;;;;;11.66;89.36;100564.13;5053933;28;20053;-62
2022/11/28 06:13:05;;;;;;;16.15;7.70;;;;;;;11.65;88.95;100557.78;5025270;28;20501;-64
2022/11/28 06:15:34;;;;;;;14.30;7.88;;;;;;;11.44;89.68;100565.03;5002149;28;20061;-63
2022/11/28 06:18:04;;;;;;;15.75;7.97;;;;;;;11.35;90.09;100573.31;5040471;28;20054;-63
2022/11/28 06:20:34;;;;;;;13.25;7.85;;;;;;;11.33;90.43;100567.28;5020481;28;20060;-64
2022/11/28 06:23:01;;;;;;;16.75;7.82;;;;;;;11.15;90.58;100578.63;5053470;28;20061;-63
2022/11/28 06:25:28;;;;;;;22.38;8.68;;;;;;;11.27;91.47;100584.31;5041953;28;20049;-63
2022/11/28 06:27:55;;;;;;;24.00;7.25;;;;;;;11.18;90.67;100580.72;5054795;28;20492;-63
2022/11/28 06:30:23;;;;;;;19.95;8.00;;;;;;;11.11;91.51;100581.19;5019794;28;20053;-63
2022/11/28 06:32:50;;;;;;;15.95;7.22;;;;;;;11.43;91.05;100584.66;5054563;28;20376;-63
2022/11/28 06:35:17;;;;;;;19.02;8.52;;;;;;;11.46;89.88;100579.31;5052406;28;20056;-63
2022/11/28 06:37:45;;;;;;;19.60;7.53;;;;;;;11.68;89.41;100578.41;5053629;28;20052;-63
2022/11/28 06:40:12;;;;;;;20.25;8.40;;;;;;;11.51;88.75;100587.44;5054516;28;20075;-63
2022/11/28 06:42:39;;;;;;;25.33;8.52;;;;;;;11.57;88.76;100588.91;5033038;28;20064;-63
2022/11/28 06:45:08;;;;;;;15.95;7.57;;;;;;;11.66;88.50;100591.72;5014761;28;20061;-63
2022/11/28 06:47:35;;;;;;;17.23;7.45;;;;;;;11.70;87.50;100590.72;5053955;28;20053;-63
2022/11/28 06:50:03;;;;;;;20.38;7.70;;;;;;;11.64;87.51;100599.47;5052872;28;20061;-63
2022/11/28 06:52:30;;;;;;;24.00;9.65;;;;;;;11.46;88.21;100603.31;5026172;28;20046;-64
2022/11/28 06:54:59;;;;;;;25.80;11.03;;;;;;;11.48;88.52;100596.38;4996804;28;20050;-63
2022/11/28 06:57:27;;;;;;;23.63;8.95;;;;;;;11.29;89.04;100602.19;5051406;28;20040;-63
2022/11/28 06:59:54;;;;;;;25.58;8.63;;;;;;;11.12;89.96;100604.84;5036146;28;20053;-63
2022/11/28 07:02:24;;;;;;;25.45;9.68;;;;;;;11.27;89.82;100604.44;5036724;28;20051;-64
2022/11/28 07:04:51;;;;;;;25.33;8.63;;;;;;;11.33;89.57;100597.63;5052947;28;20057;-63
2022/11/28 07:07:18;;;;;;;20.73;7.65;;;;;;;11.11;89.71;100607.94;5053511;28;20049;-63
2022/11/28 07:09:46;;;;;;;20.10;7.97;;;;;;;11.01;90.36;100608.25;5010947;28;20057;-63
2022/11/28 07:12:13;;;;;;;22.80;7.25;;;;;;;11.10;90.80;100607.16;5039765;28;20052;-63
2022/11/28 07:14:40;;;;;;;21.40;6.80;;;;;;;11.01;90.86;100600.78;5034247;28;20084;-64
2022/11/28 07:17:08;;;;;;;25.70;7.65;;;;;;;11.03;90.59;100606.81;5028699;28;20049;-62
2022/11/28 07:19:35;;;;;;;19.00;6.85;;;;;;;11.04;90.32;100602.06;5034100;28;20072;-62
2022/11/28 07:22:02;;;;;;;18.23;6.82;;;;;;;10.98;90.63;100603.38;5036444;28;20049;-63
2022/11/28 07:24:30;;;;;;;19.77;6.90;;;;;;;10.95;91.03;100607.56;5031362;28;20667;-62
2022/11/28 07:26:57;;;;;;;22.65;7.30;;;;;;;11.05;90.70;100604.50;5014509;28;20049;-62
2022/11/28 07:29:29;;;;;;;17.30;6.10;;;;;;;11.07;90.51;100598.72;5037865;28;20041;-64
2022/11/28 07:31:56;;;;;;;23.67;7.28;;;;;;;10.93;90.61;100607.06;5035796;28;20063;-64
2022/11/28 07:34:24;;;;;;;23.73;6.88;;;;;;;11.01;90.61;100619.25;5007474;28;20060;-61
2022/11/28 07:36:51;;;;;;;27.90;7.03;;;;;;;10.90;90.47;100613.22;5036924;28;20046;-62
2022/11/28 07:39:18;;;;;;;17.60;7.00;;;;;;;11.05;91.63;100618.28;5028873;28;20050;-63
2022/11/28 07:41:45;;;;;;;20.10;6.55;;;;;;;11.10;90.83;100618.19;5031960;28;20045;-63
2022/11/28 07:44:16;;;;;;;24.10;6.57;;;;;;;11.27;90.24;100620.16;5015481;28;20054;-64
2022/11/28 07:46:44;;;;;;;22.90;6.60;;;;;;;11.60;89.88;100607.56;5037052;28;20046;-64
2022/11/28 07:49:13;;;;;;;17.42;6.03;;;;;;;11.51;88.45;100612.25;5003710;28;20041;-64
2022/11/28 07:51:40;;;;;;;20.25;6.25;;;;;;;11.50;87.72;100618.91;5045690;28;20060;-62
2022/11/28 07:54:08;;;;;;;21.48;6.93;;;;;;;11.38;87.81;100618.75;5020968;28;20052;-65
2022/11/28 07:56:37;;;;;;;18.02;7.10;;;;;;;11.38;88.28;100621.50;5033768;28;20069;-66
2022/11/28 07:59:24;;;;;;;18.42;6.15;;;;;;;11.66;88.89;100624.81;5031217;28;20052;-65
2022/11/28 08:01:52;;;;;;;17.75;6.55;;;;;;;11.69;87.85;100626.94;5028390;28;20052;-64
2022/11/28 08:04:20;;;;;;;24.98;10.57;;;;;;;11.86;86.74;100630.50;5024228;28;20049;-64
2022/11/28 08:06:47;;;;;;;26.73;10.30;;;;;;;12.09;85.61;100631.97;5030170;28;20041;-66
2022/11/28 08:09:14;;;;;;;39.58;19.67;;;;;;;12.14;85.11;100634.56;5032915;28;20064;-65
2022/11/28 08:11:42;;;;;;;27.55;12.60;;;;;;;12.23;84.33;100638.16;5028603;28;20064;-64
2022/11/28 08:14:09;;;;;;;25.35;8.23;;;;;;;12.14;84.04;100636.50;5023080;28;20049;-63
2022/11/28 08:16:40;;;;;;;27.08;8.13;;;;;;;12.21;83.78;100637.66;5029981;28;20049;-64
2022/11/28 08:19:07;;;;;;;21.65;9.23;;;;;;;12.27;83.84;100635.53;4975173;28;20054;-63
2022/11/28 08:21:36;;;;;;;25.08;8.93;;;;;;;12.32;82.99;100643.66;5015316;28;20072;-64
2022/11/28 08:24:04;;;;;;;31.73;9.80;;;;;;;12.10;82.33;100646.59;5019932;28;20504;-63
2022/11/28 08:26:32;;;;;;;19.80;6.07;;;;;;;12.10;82.66;100647.41;5009573;28;20049;-67
2022/11/28 08:29:01;;;;;;;19.73;6.25;;;;;;;12.07;82.74;100650.00;5005430;28;20068;-65
2022/11/28 08:31:34;;;;;;;20.15;6.07;;;;;;;11.94;82.87;100653.75;5005327;28;20053;-64
2022/11/28 08:34:05;;;;;;;21.52;6.18;;;;;;;11.89;83.30;100648.38;5021774;28;20061;-65
2022/11/28 08:36:33;;;;;;;19.67;5.38;;;;;;;11.75;83.13;100648.50;5028686;28;20153;-66
2022/11/28 08:39:01;;;;;;;21.83;5.95;;;;;;;11.85;83.38;100645.47;5002293;28;20049;-66
2022/11/28 08:41:48;;;;;;;23.27;6.03;;;;;;;11.86;83.52;100637.97;5027570;28;20061;-65
2022/11/28 08:44:16;;;;;;;23.58;6.57;;;;;;;11.65;83.35;100640.56;5011845;28;20054;-65
2022/11/28 08:46:43;;;;;;;23.40;6.40;;;;;;;11.58;84.04;100640.19;5023604;28;20049;-65
2022/11/28 08:49:10;;;;;;;18.88;6.13;;;;;;;11.76;84.00;100641.88;5011506;28;20052;-64
2022/11/28 08:51:38;;;;;;;20.83;5.85;;;;;;;11.78;84.11;100644.31;5025617;28;20046;-64
2022/11/28 08:54:05;;;;;;;15.98;5.85;;;;;;;11.81;84.13;100641.72;5018012;28;20053;-65
2022/11/28 08:56:32;;;;;;;18.70;5.88;;;;;;;11.90;83.47;100644.47;5016966;28;20045;-65
2022/11/28 08:59:00;;;;;;;21.42;6.28;;;;;;;11.85;83.32;100647.41;5018503;28;20065;-64
2022/11/28 09:01:27;;;;;;;19.40;6.35;;;;;;;11.88;83.33;100646.75;5024358;28;20393;-65
2022/11/28 09:03:55;;;;;;;20.73;6.22;;;;;;;11.93;82.97;100636.38;4993115;28;20054;-66
2022/11/28 09:06:23;;;;;;;21.88;5.95;;;;;;;11.91;83.38;100635.03;5008265;28;20075;-65
2022/11/28 09:08:52;;;;;;;22.58;6.50;;;;;;;11.99;83.17;100631.50;5026449;28;20049;-65
2022/11/28 09:11:20;;;;;;;20.75;5.85;;;;;;;12.09;83.12;100639.44;5026178;28;20045;-65
2022/11/28 09:13:48;;;;;;;20.08;6.07;;;;;;;12.07;82.91;100642.53;5005587;28;20088;-64
2022/11/28 09:16:15;;;;;;;18.73;6.18;;;;;;;11.93;82.61;100643.81;5027537;28;20054;-66
2022/11/28 09:18:43;;;;;;;20.38;5.72;;;;;;;11.87;82.93;100631.34;5010105;28;20045;-71
2022/11/28 09:21:12;;;;;;;21.58;5.60;;;;;;;11.85;82.55;100636.34;5031946;28;20155;-66
2022/11/28 09:23:42;;;;;;;15.90;5.22;;;;;;;11.89;83.21;100646.41;5032246;28;20057;-64
2022/11/28 09:26:13;;;;;;;20.30;5.15;;;;;;;12.16;82.19;100646.09;5022691;28;20049;-65
2022/11/28 09:28:41;;;;;;;20.88;5.43;;;;;;;12.02;81.84;100648.22;5017366;28;20073;-66
2022/11/28 09:31:11;;;;;;;22.73;4.97;;;;;;;11.77;82.70;100646.25;5021509;28;20057;-66
2022/11/28 09:33:38;;;;;;;24.52;5.47;;;;;;;11.92;83.05;100656.84;5026319;28;20057;-65
2022/11/28 09:36:07;;;;;;;17.27;4.97;;;;;;;12.14;82.73;100653.91;5006224;28;20057;-63
2022/11/28 09:38:35;;;;;;;21.02;5.35;;;;;;;12.17;82.15;100657.94;5023891;28;20049;-66
2022/11/28 09:41:03;;;;;;;17.50;5.05;;;;;;;12.14;81.50;100653.91;5011056;28;20042;-64
2022/11/28 09:43:43;;;;;;;22.38;5.70;;;;;;;12.16;81.07;100656.34;5003578;28;20057;-65
2022/11/28 09:46:13;;;;;;;;;;;;;;;12.05;81.74;100660.53;5008747;28;20057;-65
2022/11/28 09:48:49;;;;;;;18.77;4.97;;;;;;;12.33;81.10;100659.91;5023509;28;19928;-66
2022/11/28 09:51:27;;;;;;;20.85;5.40;;;;;;;12.15;80.72;100654.72;5010618;28;20049;-66
2022/11/28 09:54:07;;;;;;;19.77;4.93;;;;;;;11.96;81.26;100654.25;5000011;28;20045;-63
2022/11/28 09:56:34;;;;;;;15.88;5.22;;;;;;;12.00;81.47;100647.72;4999221;28;20052;-64
2022/11/28 09:59:02;;;;;;;20.23;5.10;;;;;;;11.84;81.74;100651.28;5012153;28;20064;-64
2022/11/28 10:01:54;;;;;;;18.83;5.80;;;;;;;11.90;81.93;100650.00;5026185;28;20492;-65
2022/11/28 10:04:26;;;;;;;24.60;7.25;;;;;;;12.12;81.66;100653.41;5029473;28;20049;-63
2022/11/28 10:07:10;;;;;;;20.52;6.50;;;;;;;12.26;81.01;100640.25;5028735;28;20054;-64
2022/11/28 10:10:03;;;;;;;18.00;5.95;;;;;;;12.19;80.65;100648.22;5023681;28;20057;-64
2022/11/28 10:12:46;;;;;;;22.08;6.05;;;;;;;12.37;80.94;100647.06;5029915;28;20060;-66
2022/11/28 10:15:29;;;;;;;44.97;7.07;;;;;;;12.45;79.85;100651.75;4993794;28;20049;-64
2022/11/28 10:18:34;;;;;;;23.85;5.50;;;;;;;12.29;79.73;100660.91;5028327;28;20353;-64
2022/11/28 10:21:21;;;;;;;24.52;5.03;;;;;;;12.14;80.29;100664.13;5007146;28;20064;-64
2022/11/28 10:23:51;;;;;;;19.23;5.15;;;;;;;12.12;80.57;100660.88;5029131;28;20049;-64
2022/11/28 10:26:24;;;;;;;27.88;5.88;;;;;;;12.12;80.65;100664.47;5015928;28;20053;-63
2022/11/28 10:28:54;;;;;;;15.55;4.28;;;;;;;12.12;80.83;100675.50;5031266;28;20041;-63
2022/11/28 10:31:34;;;;;;;20.30;5.30;;;;;;;12.26;80.57;100667.88;5031015;28;20041;-64
2022/11/28 10:34:07;;;;;;;23.88;5.68;;;;;;;12.44;80.25;100660.38;5009614;28;20054;-65
2022/11/28 10:36:54;;;;;;;18.35;5.03;;;;;;;12.48;79.40;100661.34;5016617;28;20050;-63
2022/11/28 10:39:24;;;;;;;23.10;5.57;;;;;;;12.26;79.83;100656.00;5013121;28;20451;-64
2022/11/28 10:42:13;;;;;;;21.25;5.18;;;;;;;12.17;79.63;100658.78;5018417;28;20061;-63
2022/11/28 10:45:02;;;;;;;20.27;4.32;;;;;;;12.16;80.01;100654.41;5028329;28;20062;-63
2022/11/28 10:47:57;;;;;;;20.65;4.68;;;;;;;12.13;80.71;100649.50;5013336;28;20692;-63
2022/11/28 10:50:43;;;;;;;17.27;4.85;;;;;;;12.26;80.04;100651.28;5014743;28;20065;-65
2022/11/28 10:53:38;;;;;;;21.60;4.38;;;;;;;12.39;79.59;100655.03;5026959;28;20049;-64
2022/11/28 10:56:34;;;;;;;23.20;5.45;;;;;;;12.36;79.26;100647.41;5019598;28;20065;-65
2022/11/28 10:59:32;;;;;;;22.80;5.10;;;;;;;12.46;79.03;100647.84;4976553;28;20390;-65
2022/11/28 11:02:23;;;;;;;20.33;4.47;;;;;;;12.44;78.54;100652.91;5017720;28;20060;-63
2022/11/28 11:04:50;;;;;;;18.30;5.10;;;;;;;12.73;77.99;100652.19;5013460;28;20049;-62
2022/11/28 11:07:29;;;;;;;17.58;3.83;;;;;;;12.88;76.23;100643.38;5031804;28;20050;-63
2022/11/28 11:10:14;;;;;;;23.30;4.65;;;;;;;12.67;76.68;100648.00;5017327;28;20061;-63
2022/11/28 11:12:42;;;;;;;18.33;3.88;;;;;;;12.79;76.14;100650.06;5032968;28;20060;-63
2022/11/28 11:15:30;;;;;;;23.33;4.63;;;;;;;12.71;76.31;100657.22;5034151;28;20061;-63
2022/11/28 11:18:05;;;;;;;18.08;4.20;;;;;;;12.74;76.21;100670.41;5031299;28;20046;-62
2022/11/28 11:20:35;;;;;;;16.73;4.55;;;;;;;12.66;76.85;100671.22;5015573;28;20045;-64
2022/11/28 11:23:20;;;;;;;18.10;4.25;;;;;;;12.86;76.16;100670.53;4998892;28;20061;-65
2022/11/28 11:25:51;;;;;;;19.73;4.65;;;;;;;12.77;75.66;100672.50;5023404;28;20408;-64
2022/11/28 11:28:32;;;;;;;25.17;6.70;;;;;;;12.60;76.56;100666.19;5018686;28;20056;-64
2022/11/28 11:31:01;;;;;;;31.00;10.18;;;;;;;12.45;76.69;100670.28;5031099;28;20052;-65
2022/11/28 11:33:33;;;;;;;26.30;6.97;;;;;;;12.60;76.94;100653.22;5031702;28;20049;-63
2022/11/28 11:36:03;;;;;;;24.70;7.82;;;;;;;12.81;76.61;100645.03;5033572;28;20045;-65
2022/11/28 11:38:33;;;;;;;;;;;;;;;12.85;75.02;100652.31;5013018;28;20046;-64
2022/11/28 11:41:28;;;;;;;49.17;17.70;;;;;;;12.80;75.31;100637.84;4998184;28;19921;-64
2022/11/28 11:44:16;;;;;;;43.28;17.85;;;;;;;13.00;75.10;100643.50;5016288;28;20048;-63
2022/11/28 11:46:54;;;;;;;35.28;13.57;;;;;;;13.20;74.26;100642.78;5016196;28;20057;-63